Latest Weather Observations for Noarlunga

IDS60801

Issued at 10:31 pm CST Saturday 30 July 2016 (issued every 30 minutes, with the page automatically refreshed every 10 minutes)

About weather observations | Map of weather stations | Latest weather observations for SA | Other Formats
Station Details ID: 023885 Name: NOARLUNGA Lat: -35.16 Lon: 138.51 Height: 55.0 m
Data from the previous 72 hours. | See also: Recent months at Noarlunga
Date/Time
CST
Temp
°C
App
Temp
°C
Dew
Point
°C
Rel
Hum
%
Delta-T
°C
Wind Press
QNH
hPa
Press
MSL
hPa
Rain since
9am
mm
Dir  Spd
km/h
Gust
km/h
Spd
kts
Gust
kts
30/10:30pm 13.7 9.9 9.0 73 2.4 N 19 28 10 15 - - 2.6
30/10:00pm 14.0 10.4 8.4 69 2.8 N 17 24 9 13 - - 2.6
30/09:30pm 14.4 11.4 7.9 65 3.2 N 13 20 7 11 - - 2.6
30/09:00pm 13.8 10.2 8.2 69 2.8 NNE 17 22 9 12 - - 2.6
30/08:30pm 13.6 10.0 8.4 71 2.6 N 17 22 9 12 - - 2.6
30/08:00pm 13.4 9.9 8.7 73 2.4 N 17 28 9 15 - - 2.6
30/07:30pm 12.9 9.1 9.0 77 2.0 NNE 19 24 10 13 - - 2.6
30/07:00pm 12.7 9.3 9.3 80 1.7 NNE 17 22 9 12 - - 2.6
30/06:30pm 12.7 9.0 9.5 81 1.6 N 19 24 10 13 - - 2.6
30/06:00pm 12.4 8.5 9.4 82 1.5 N 20 30 11 16 - - 2.2
30/05:30pm 13.0 7.8 8.9 76 2.1 N 26 35 14 19 - - 1.0
30/05:00pm 13.7 7.9 7.9 68 2.9 N 28 35 15 19 - - 0.2
30/04:30pm 14.7 8.3 7.0 60 3.8 N 30 43 16 23 - - 0.0
30/04:00pm 15.4 8.5 6.4 55 4.4 N 32 48 17 26 - - 0.0
30/03:30pm 15.5 9.8 6.8 56 4.3 N 26 39 14 21 - - 0.0
30/03:00pm 15.4 8.9 6.4 55 4.4 N 30 41 16 22 - - 0.0
30/02:30pm 15.5 7.6 6.0 53 4.6 N 37 50 20 27 - - 0.0
30/02:08pm 15.5 7.6 6.0 53 4.6 N 37 56 20 30 - - 0.0
30/02:00pm 15.5 6.8 6.0 53 4.6 N 41 54 22 29 - - 0.0
30/01:35pm 15.4 7.8 5.9 53 4.6 N 35 54 19 29 - - 0.0
30/01:30pm 15.4 7.9 6.2 54 4.5 N 35 52 19 28 - - 0.0
30/01:00pm 15.2 7.3 6.0 54 4.4 N 37 56 20 30 - - 0.0
30/12:38pm 15.5 6.7 5.4 51 4.8 N 41 61 22 33 - - 0.0
30/12:30pm 15.6 6.3 5.2 50 4.9 N 43 61 23 33 - - 0.0
30/12:01pm 15.2 6.0 5.4 52 4.7 N 43 63 23 34 - - 0.0
30/12:00pm 15.1 5.9 5.3 52 4.6 N 43 57 23 31 - - 0.0
30/11:35am 15.7 6.5 5.6 51 4.8 N 43 63 23 34 - - 0.0
30/11:30am 15.5 6.1 5.4 51 4.8 N 44 63 24 34 - - 0.0
30/11:00am 15.7 7.0 5.9 52 4.7 N 41 61 22 33 - - 0.0
30/10:30am 14.6 6.4 4.9 52 4.5 N 37 59 20 32 - - 0.0
30/10:00am 14.2 6.3 4.5 52 4.5 N 35 56 19 30 - - 0.0
30/09:47am 13.9 6.4 4.5 53 4.3 N 33 54 18 29 - - 0.0
30/09:30am 13.7 5.8 4.3 53 4.3 N 35 46 19 25 - - 0.0
30/09:00am 13.9 6.6 4.5 53 4.3 N 32 52 17 28 - - 0.0
30/08:58am 13.9 6.6 4.5 53 4.3 N 32 52 17 28 - - 0.0
30/08:30am 13.0 6.0 3.9 54 4.1 N 30 43 16 23 - - 0.0
30/08:00am 13.0 6.8 4.2 55 4.0 N 26 39 14 21 - - 0.0
30/07:30am 12.7 7.2 4.2 56 3.9 NNE 22 43 12 23 - - 0.0
30/07:00am 12.6 7.2 4.3 57 3.8 NNE 22 32 12 17 - - 0.0
30/06:30am 12.8 7.0 4.5 57 3.8 N 24 35 13 19 - - 0.0
30/06:00am 12.7 7.4 4.9 59 3.6 NNE 22 33 12 18 - - 0.0
30/05:30am 12.6 7.3 5.1 60 3.5 N 22 32 12 17 - - 0.0
30/05:00am 12.3 7.6 5.2 62 3.3 N 19 24 10 13 - - 0.0
30/04:30am 12.2 7.9 5.4 63 3.2 NNE 17 22 9 12 - - 0.0
30/04:00am 12.1 8.6 5.5 64 3.1 NNE 13 19 7 10 - - 0.0
30/03:30am 12.2 8.8 5.8 65 3.0 NNE 13 20 7 11 - - 0.0
30/03:00am 12.3 8.9 5.9 65 3.0 NNE 13 19 7 10 - - 0.0
30/02:30am 12.1 8.2 5.5 64 3.1 NNE 15 22 8 12 - - 0.0
30/02:00am 12.0 8.6 5.9 66 2.9 NNE 13 19 7 10 - - 0.0
30/01:30am 11.7 8.4 6.2 69 2.6 NNE 13 19 7 10 - - 0.0
30/01:00am 11.6 8.4 6.7 72 2.3 NNE 13 20 7 11 - - 0.0
30/12:30am 11.8 9.0 6.9 72 2.3 NNE 11 17 6 9 - - 0.0
30/12:00am 12.2 8.7 7.1 71 2.5 NNE 15 22 8 12 - - 0.0
 
Date/Time
CST
Temp
°C
App
Temp
°C
Dew
Point
°C
Rel
Hum
%
Delta-T
°C
Wind Press
QNH
hPa
Press
MSL
hPa
Rain since
9am
mm
Dir  Spd
km/h
Gust
km/h
Spd
kts
Gust
kts
29/11:30pm 12.4 9.0 7.5 72 2.4 N 15 22 8 12 - - 0.0
29/11:00pm 12.5 9.5 7.8 73 2.3 N 13 19 7 10 - - 0.0
29/10:30pm 12.5 9.9 7.8 73 2.3 NNE 11 17 6 9 - - 0.0
29/10:00pm 12.2 9.6 7.9 75 2.1 NNE 11 15 6 8 - - 0.0
29/09:30pm 12.2 9.7 8.1 76 2.0 NNE 11 15 6 8 - - 0.0
29/09:00pm 11.9 9.4 8.0 77 1.9 NNE 11 15 6 8 - - 0.0
29/08:30pm 11.8 9.6 7.9 77 1.9 NNE 9 13 5 7 - - 0.0
29/08:00pm 11.8 9.2 7.9 77 1.9 NE 11 15 6 8 - - 0.0
29/07:30pm 11.3 9.5 8.0 80 1.6 NE 7 9 4 5 - - 0.0
29/07:00pm 11.1 10.6 7.8 80 1.6 CALM 0 2 0 1 - - 0.0
29/06:30pm 11.5 9.9 7.8 78 1.8 ENE 6 9 3 5 - - 0.0
29/06:00pm 12.2 10.9 7.7 74 2.2 NNE 4 6 2 3 - - 0.0
29/05:30pm 12.3 11.0 7.6 73 2.3 N 4 4 2 2 - - 0.0
29/05:00pm 13.2 10.9 7.6 69 2.7 NNE 9 13 5 7 - - 0.0
29/04:30pm 13.0 10.8 7.7 70 2.6 N 9 15 5 8 - - 0.0
29/04:00pm 13.3 10.6 7.3 67 2.9 N 11 15 6 8 - - 0.0
29/03:30pm 14.0 11.3 7.3 64 3.3 N 11 17 6 9 - - 0.0
29/03:00pm 13.5 11.2 7.3 66 3.0 NNW 9 17 5 9 - - 0.0
29/02:30pm 13.5 10.9 7.9 69 2.8 NNW 11 17 6 9 - - 0.0
29/02:00pm 12.9 10.6 7.4 69 2.7 NNW 9 13 5 7 - - 0.0
29/01:30pm 12.7 9.6 7.4 70 2.6 NNW 13 19 7 10 - - 0.0
29/01:00pm 12.5 9.0 7.4 71 2.5 NNW 15 20 8 11 - - 0.0
29/12:30pm 13.0 9.0 6.8 66 3.0 NNW 17 22 9 12 - - 0.0
29/12:00pm 13.3 10.1 8.4 72 2.4 N 15 20 8 11 - - 0.0
29/11:30am 12.5 9.4 7.2 70 2.6 N 13 22 7 12 - - 0.0
29/11:00am 12.3 9.6 7.4 72 2.4 NNW 11 17 6 9 - - 0.0
29/10:30am 11.9 8.4 7.4 74 2.2 N 15 20 8 11 - - 0.0
29/10:00am 11.2 7.7 7.3 77 1.9 N 15 22 8 12 - - 0.0
29/09:30am 10.8 7.8 7.5 80 1.6 N 13 20 7 11 - - 0.0
29/09:00am 10.4 7.0 7.8 84 1.3 N 15 22 8 12 - - 0.6
29/08:30am 10.1 6.0 7.7 85 1.2 N 19 26 10 14 - - 0.6
29/08:00am 9.8 7.2 7.6 86 1.1 N 11 19 6 10 - - 0.6
29/07:30am 9.7 6.7 7.6 87 1.0 N 13 19 7 10 - - 0.6
29/07:00am 9.6 6.6 7.7 88 0.9 N 13 20 7 11 - - 0.6
29/06:30am 9.6 7.1 8.0 90 0.8 N 11 15 6 8 - - 0.6
29/06:00am 9.8 7.3 8.2 90 0.8 N 11 20 6 11 - - 0.6
29/05:30am 10.0 7.9 8.4 90 0.8 N 9 15 5 8 - - 0.6
29/05:00am 10.3 8.0 8.9 91 0.7 NNW 11 20 6 11 - - 0.6
29/04:30am 10.3 7.6 8.9 91 0.7 NNW 13 20 7 11 - - 0.6
29/04:00am 10.4 7.7 9.0 91 0.7 NW 13 20 7 11 - - 0.6
29/03:30am 10.3 7.2 8.9 91 0.7 NW 15 24 8 13 - - 0.4
29/03:00am 10.3 6.8 8.9 91 0.7 NW 17 24 9 13 - - 0.2
29/02:30am 10.5 7.1 9.1 91 0.7 NNW 17 22 9 12 - - 0.0
29/02:00am 10.5 8.2 8.9 90 0.8 NNW 11 19 6 10 - - 0.0
29/01:30am 10.4 8.0 8.8 90 0.8 NNW 11 17 6 9 - - 0.0
29/01:00am 10.1 7.3 8.4 89 0.8 NNW 13 20 7 11 - - 0.0
29/12:30am 10.4 7.3 8.7 89 0.8 NW 15 24 8 13 - - 0.0
29/12:00am 10.6 7.9 8.9 89 0.8 NNW 13 19 7 10 - - 0.0
 
Date/Time
CST
Temp
°C
App
Temp
°C
Dew
Point
°C
Rel
Hum
%
Delta-T
°C
Wind Press
QNH
hPa
Press
MSL
hPa
Rain since
9am
mm
Dir  Spd
km/h
Gust
km/h
Spd
kts
Gust
kts
28/11:30pm 11.0 8.3 8.8 86 1.1 NNW 13 19 7 10 - - 0.0
28/11:00pm 11.2 8.3 8.2 82 1.5 NNW 13 22 7 12 - - 0.0
28/10:30pm 11.1 7.8 8.0 81 1.5 NNW 15 20 8 11 - - 0.0
28/10:00pm 11.2 7.9 7.9 80 1.6 N 15 22 8 12 - - 0.0
28/09:30pm 11.0 7.7 7.9 81 1.5 N 15 20 8 11 - - 0.0
28/09:00pm 11.3 8.4 8.0 80 1.6 NNW 13 19 7 10 - - 0.0
28/08:30pm 11.4 8.4 7.5 77 1.9 NNW 13 19 7 10 - - 0.0
28/08:00pm 11.6 8.2 6.1 69 2.6 NNW 13 17 7 9 - - 0.0
28/07:30pm 11.7 8.1 6.8 72 2.3 WNW 15 24 8 13 - - 0.0
28/07:00pm 12.0 8.5 7.1 72 2.4 WNW 15 28 8 15 - - 0.0
28/06:30pm 11.9 8.5 7.8 76 2.0 NW 15 24 8 13 - - 0.0
28/06:00pm 12.1 8.0 8.0 76 2.0 NW 19 28 10 15 - - 0.0
28/05:30pm 12.2 9.0 8.3 77 1.9 NW 15 22 8 12 - - 0.0
28/05:00pm 12.2 9.9 8.9 80 1.7 NW 11 17 6 9 - - 0.0
28/04:30pm 12.7 9.8 8.2 74 2.2 NW 13 22 7 12 - - 0.0
28/04:00pm 12.9 10.0 8.2 73 2.3 NW 13 28 7 15 - - 0.0
28/03:30pm 12.8 9.6 8.5 75 2.1 NNW 15 24 8 13 - - 0.0
28/03:00pm 12.6 9.5 8.9 78 1.9 N 15 22 8 12 - - 0.0
28/02:30pm 12.3 8.5 9.1 81 1.6 N 19 26 10 14 - - 0.0
28/02:00pm 12.7 9.2 8.8 77 2.0 NNW 17 24 9 13 - - 0.0
28/01:30pm 12.5 9.1 9.1 80 1.7 NNW 17 24 9 13 - - 0.0
28/01:00pm 12.1 8.3 8.9 81 1.6 NNW 19 28 10 15 - - 0.0
28/12:30pm 12.3 8.4 8.8 79 1.8 NNW 19 24 10 13 - - 0.0
28/12:00pm 12.8 10.0 8.5 75 2.1 NNW 13 19 7 10 - - 0.0
28/11:30am 12.5 9.3 8.4 76 2.0 NW 15 24 8 13 - - 0.0
28/11:00am 12.2 8.6 8.5 78 1.8 NNW 17 22 9 12 - - 0.0
28/10:30am 12.2 9.0 8.5 78 1.8 NNW 15 24 8 13 - - 0.0
28/10:00am 11.9 8.8 8.9 82 1.5 NNW 15 22 8 12 - - 0.0
28/09:30am 11.9 8.4 8.6 80 1.6 NNW 17 22 9 12 - - 0.0
28/09:00am 11.6 8.7 8.3 80 1.6 NW 13 22 7 12 - - 0.2
28/08:30am 11.3 8.5 8.7 84 1.3 NW 13 19 7 10 - - 0.2
28/08:00am 11.2 8.8 8.8 85 1.2 NW 11 19 6 10 - - 0.2
28/07:30am 11.0 8.6 8.6 85 1.2 NW 11 19 6 10 - - 0.2
28/07:00am 10.6 8.6 8.5 87 1.0 NW 9 17 5 9 - - 0.2
28/06:30am 10.7 8.7 8.8 88 0.9 NW 9 19 5 10 - - 0.2
28/06:00am 10.8 7.6 8.6 86 1.1 WNW 15 26 8 14 - - 0.2
28/05:30am 10.8 8.8 8.7 87 1.0 NW 9 17 5 9 - - 0.2
28/05:00am 10.7 8.3 8.5 86 1.1 NW 11 17 6 9 - - 0.0
28/04:30am 10.5 7.7 8.6 88 0.9 WNW 13 19 7 10 - - 0.0
28/04:00am 11.0 7.7 8.1 82 1.4 WNW 15 24 8 13 - - 0.0
28/03:30am 11.7 7.9 7.4 75 2.1 WNW 17 26 9 14 - - 0.0
28/03:00am 11.6 9.0 7.7 77 1.9 NW 11 17 6 9 - - 0.0
28/02:30am 11.7 7.8 7.0 73 2.3 WNW 17 26 9 14 - - 0.0
28/02:00am 11.9 8.9 7.8 76 2.0 WNW 13 24 7 13 - - 0.0
28/01:30am 11.9 8.5 7.6 75 2.1 NW 15 24 8 13 - - 0.0
28/01:00am 11.9 8.4 7.4 74 2.2 NW 15 24 8 13 - - 0.0
28/12:30am 11.9 8.4 7.4 74 2.2 WNW 15 20 8 11 - - 0.0
28/12:00am 11.8 8.3 7.3 74 2.2 WNW 15 20 8 11 - - 0.0
 
Date/Time
CST
Temp
°C
App
Temp
°C
Dew
Point
°C
Rel
Hum
%
Delta-T
°C
Wind Press
QNH
hPa
Press
MSL
hPa
Rain since
9am
mm
Dir  Spd
km/h
Gust
km/h
Spd
kts
Gust
kts
27/11:30pm 11.7 9.1 7.6 76 2.0 NW 11 19 6 10 - - 0.0
27/11:00pm 11.7 9.0 7.2 74 2.2 WNW 11 17 6 9 - - 0.0

Other Formats:

Comma delimited format used in spreadsheet applications
http://www.bom.gov.au/fwo/IDS60801/IDS60801.94808.axf

JavaScript Object Notation format (JSON) in row-major order
http://www.bom.gov.au/fwo/IDS60801/IDS60801.94808.json